sensor_id;sensor_type;location;lat;lon;timestamp;P1;durP1;ratioP1;P2;durP2;ratioP2
44995;SDS011;30729;49.486;10.792;2023-07-20T00:02:43;9.45;;;4.30;;
44995;SDS011;30729;49.486;10.792;2023-07-20T00:05:09;11.85;;;4.53;;
44995;SDS011;30729;49.486;10.792;2023-07-20T00:07:34;8.30;;;4.18;;
44995;SDS011;30729;49.486;10.792;2023-07-20T00:09:59;7.93;;;4.17;;
44995;SDS011;30729;49.486;10.792;2023-07-20T00:12:24;9.73;;;4.28;;
44995;SDS011;30729;49.486;10.792;2023-07-20T00:14:49;9.60;;;4.37;;
44995;SDS011;30729;49.486;10.792;2023-07-20T00:17:18;9.63;;;4.07;;
44995;SDS011;30729;49.486;10.792;2023-07-20T00:19:43;12.70;;;4.68;;
44995;SDS011;30729;49.486;10.792;2023-07-20T00:22:09;9.30;;;4.18;;
44995;SDS011;30729;49.486;10.792;2023-07-20T00:24:34;10.48;;;4.97;;
44995;SDS011;30729;49.486;10.792;2023-07-20T00:26:59;8.85;;;4.50;;
44995;SDS011;30729;49.486;10.792;2023-07-20T00:29:25;9.07;;;4.45;;
44995;SDS011;30729;49.486;10.792;2023-07-20T00:31:51;9.40;;;4.28;;
44995;SDS011;30729;49.486;10.792;2023-07-20T00:34:16;10.18;;;4.20;;
44995;SDS011;30729;49.486;10.792;2023-07-20T00:36:41;10.60;;;4.25;;
44995;SDS011;30729;49.486;10.792;2023-07-20T00:39:06;8.15;;;3.88;;
44995;SDS011;30729;49.486;10.792;2023-07-20T00:41:31;8.88;;;4.40;;
44995;SDS011;30729;49.486;10.792;2023-07-20T00:43:58;11.02;;;4.55;;
44995;SDS011;30729;49.486;10.792;2023-07-20T00:46:23;7.63;;;3.97;;
44995;SDS011;30729;49.486;10.792;2023-07-20T00:48:49;9.32;;;4.38;;
44995;SDS011;30729;49.486;10.792;2023-07-20T00:51:14;8.60;;;4.00;;
44995;SDS011;30729;49.486;10.792;2023-07-20T00:53:40;11.27;;;4.40;;
44995;SDS011;30729;49.486;10.792;2023-07-20T00:56:05;10.17;;;4.13;;
44995;SDS011;30729;49.486;10.792;2023-07-20T00:58:32;11.30;;;4.60;;
44995;SDS011;30729;49.486;10.792;2023-07-20T01:00:57;9.30;;;4.07;;
44995;SDS011;30729;49.486;10.792;2023-07-20T01:03:22;10.13;;;4.47;;
44995;SDS011;30729;49.486;10.792;2023-07-20T01:08:17;9.13;;;3.97;;
44995;SDS011;30729;49.486;10.792;2023-07-20T01:10:44;8.52;;;4.40;;
44995;SDS011;30729;49.486;10.792;2023-07-20T01:13:11;10.80;;;5.25;;
44995;SDS011;30729;49.486;10.792;2023-07-20T01:15:38;9.52;;;4.15;;
44995;SDS011;30729;49.486;10.792;2023-07-20T01:18:03;9.18;;;4.38;;
44995;SDS011;30729;49.486;10.792;2023-07-20T01:20:30;14.68;;;4.80;;
44995;SDS011;30729;49.486;10.792;2023-07-20T01:25:45;9.05;;;3.90;;
44995;SDS011;30729;49.486;10.792;2023-07-20T01:33:34;7.30;;;3.65;;
44995;SDS011;30729;49.486;10.792;2023-07-20T01:36:00;7.45;;;4.07;;
44995;SDS011;30729;49.486;10.792;2023-07-20T01:38:26;8.27;;;4.25;;
44995;SDS011;30729;49.486;10.792;2023-07-20T01:40:51;7.40;;;3.50;;
44995;SDS011;30729;49.486;10.792;2023-07-20T01:43:17;9.40;;;3.17;;
44995;SDS011;30729;49.486;10.792;2023-07-20T01:45:42;7.90;;;3.58;;
44995;SDS011;30729;49.486;10.792;2023-07-20T01:48:08;7.32;;;3.28;;
44995;SDS011;30729;49.486;10.792;2023-07-20T01:50:33;7.63;;;3.33;;
44995;SDS011;30729;49.486;10.792;2023-07-20T01:52:59;7.95;;;3.20;;
44995;SDS011;30729;49.486;10.792;2023-07-20T01:55:24;6.93;;;3.07;;
44995;SDS011;30729;49.486;10.792;2023-07-20T01:57:49;9.68;;;3.70;;
44995;SDS011;30729;49.486;10.792;2023-07-20T02:00:15;8.80;;;3.67;;
44995;SDS011;30729;49.486;10.792;2023-07-20T02:02:41;5.78;;;3.10;;
44995;SDS011;30729;49.486;10.792;2023-07-20T02:05:06;6.78;;;3.33;;
44995;SDS011;30729;49.486;10.792;2023-07-20T02:07:31;7.40;;;2.97;;
44995;SDS011;30729;49.486;10.792;2023-07-20T02:09:56;5.95;;;3.05;;
44995;SDS011;30729;49.486;10.792;2023-07-20T02:12:21;7.80;;;3.22;;
44995;SDS011;30729;49.486;10.792;2023-07-20T02:14:46;7.53;;;3.47;;
44995;SDS011;30729;49.486;10.792;2023-07-20T02:17:12;8.68;;;3.22;;
44995;SDS011;30729;49.486;10.792;2023-07-20T02:19:37;10.43;;;3.63;;
44995;SDS011;30729;49.486;10.792;2023-07-20T02:22:03;7.38;;;3.40;;
44995;SDS011;30729;49.486;10.792;2023-07-20T02:24:28;6.38;;;3.13;;
44995;SDS011;30729;49.486;10.792;2023-07-20T02:26:53;7.77;;;3.30;;
44995;SDS011;30729;49.486;10.792;2023-07-20T02:29:19;10.10;;;3.25;;
44995;SDS011;30729;49.486;10.792;2023-07-20T02:31:44;8.83;;;3.40;;
44995;SDS011;30729;49.486;10.792;2023-07-20T02:34:09;9.05;;;3.22;;
44995;SDS011;30729;49.486;10.792;2023-07-20T02:36:34;6.77;;;3.30;;
44995;SDS011;30729;49.486;10.792;2023-07-20T02:38:59;7.28;;;2.75;;
44995;SDS011;30729;49.486;10.792;2023-07-20T02:41:25;11.02;;;3.33;;
44995;SDS011;30729;49.486;10.792;2023-07-20T02:43:50;10.73;;;3.33;;
44995;SDS011;30729;49.486;10.792;2023-07-20T02:46:15;8.88;;;3.33;;
44995;SDS011;30729;49.486;10.792;2023-07-20T02:48:40;10.70;;;3.80;;
44995;SDS011;30729;49.486;10.792;2023-07-20T02:51:05;8.88;;;3.22;;
44995;SDS011;30729;49.486;10.792;2023-07-20T02:53:32;11.75;;;3.50;;
44995;SDS011;30729;49.486;10.792;2023-07-20T02:55:57;8.45;;;3.20;;
44995;SDS011;30729;49.486;10.792;2023-07-20T02:58:22;9.50;;;3.50;;
44995;SDS011;30729;49.486;10.792;2023-07-20T03:00:47;9.25;;;3.10;;
44995;SDS011;30729;49.486;10.792;2023-07-20T03:03:13;10.63;;;4.10;;
44995;SDS011;30729;49.486;10.792;2023-07-20T03:05:40;6.83;;;3.30;;
44995;SDS011;30729;49.486;10.792;2023-07-20T03:08:05;11.38;;;3.58;;
44995;SDS011;30729;49.486;10.792;2023-07-20T03:10:31;9.18;;;3.55;;
44995;SDS011;30729;49.486;10.792;2023-07-20T03:12:56;9.27;;;3.63;;
44995;SDS011;30729;49.486;10.792;2023-07-20T03:15:21;8.13;;;3.70;;
44995;SDS011;30729;49.486;10.792;2023-07-20T03:17:46;14.90;;;3.45;;
44995;SDS011;30729;49.486;10.792;2023-07-20T03:20:12;11.43;;;4.07;;
44995;SDS011;30729;49.486;10.792;2023-07-20T03:22:37;8.32;;;4.18;;
44995;SDS011;30729;49.486;10.792;2023-07-20T03:25:04;10.93;;;3.80;;
44995;SDS011;30729;49.486;10.792;2023-07-20T03:27:29;15.18;;;4.38;;
44995;SDS011;30729;49.486;10.792;2023-07-20T03:29:54;9.25;;;3.70;;
44995;SDS011;30729;49.486;10.792;2023-07-20T03:32:19;16.58;;;4.50;;
44995;SDS011;30729;49.486;10.792;2023-07-20T03:34:44;9.63;;;4.47;;
44995;SDS011;30729;49.486;10.792;2023-07-20T03:37:10;10.35;;;3.90;;
44995;SDS011;30729;49.486;10.792;2023-07-20T03:39:35;14.57;;;3.90;;
44995;SDS011;30729;49.486;10.792;2023-07-20T03:42:01;17.00;;;5.93;;
44995;SDS011;30729;49.486;10.792;2023-07-20T03:44:26;12.93;;;4.83;;
44995;SDS011;30729;49.486;10.792;2023-07-20T03:46:52;13.15;;;5.28;;
44995;SDS011;30729;49.486;10.792;2023-07-20T03:49:17;10.10;;;4.23;;
44995;SDS011;30729;49.486;10.792;2023-07-20T03:51:42;11.63;;;4.78;;
44995;SDS011;30729;49.486;10.792;2023-07-20T03:54:08;12.38;;;4.50;;
44995;SDS011;30729;49.486;10.792;2023-07-20T03:56:33;7.05;;;4.25;;
44995;SDS011;30729;49.486;10.792;2023-07-20T03:59:00;12.60;;;5.10;;
44995;SDS011;30729;49.486;10.792;2023-07-20T04:01:25;12.90;;;5.03;;
44995;SDS011;30729;49.486;10.792;2023-07-20T04:03:50;13.27;;;4.80;;
44995;SDS011;30729;49.486;10.792;2023-07-20T04:06:16;12.43;;;4.63;;
44995;SDS011;30729;49.486;10.792;2023-07-20T04:08:42;10.65;;;4.78;;
44995;SDS011;30729;49.486;10.792;2023-07-20T04:11:07;12.43;;;4.55;;
44995;SDS011;30729;49.486;10.792;2023-07-20T04:13:32;10.57;;;4.72;;
44995;SDS011;30729;49.486;10.792;2023-07-20T04:15:59;10.02;;;3.85;;
44995;SDS011;30729;49.486;10.792;2023-07-20T04:18:24;11.57;;;4.55;;
44995;SDS011;30729;49.486;10.792;2023-07-20T04:20:49;7.37;;;3.90;;
44995;SDS011;30729;49.486;10.792;2023-07-20T04:23:14;13.67;;;4.30;;
44995;SDS011;30729;49.486;10.792;2023-07-20T04:25:40;13.13;;;3.80;;
44995;SDS011;30729;49.486;10.792;2023-07-20T04:28:08;13.73;;;4.40;;
44995;SDS011;30729;49.486;10.792;2023-07-20T04:30:36;9.77;;;4.60;;
44995;SDS011;30729;49.486;10.792;2023-07-20T04:33:02;9.20;;;3.83;;
44995;SDS011;30729;49.486;10.792;2023-07-20T04:38:11;13.47;;;4.43;;
44995;SDS011;30729;49.486;10.792;2023-07-20T04:40:37;13.10;;;4.67;;
44995;SDS011;30729;49.486;10.792;2023-07-20T04:43:02;11.10;;;3.60;;
44995;SDS011;30729;49.486;10.792;2023-07-20T04:45:28;8.60;;;4.25;;
44995;SDS011;30729;49.486;10.792;2023-07-20T04:47:53;8.93;;;4.13;;
44995;SDS011;30729;49.486;10.792;2023-07-20T04:50:18;10.55;;;3.85;;
44995;SDS011;30729;49.486;10.792;2023-07-20T04:52:43;7.53;;;3.20;;
44995;SDS011;30729;49.486;10.792;2023-07-20T04:55:08;14.13;;;3.87;;
44995;SDS011;30729;49.486;10.792;2023-07-20T04:57:34;8.43;;;3.60;;
44995;SDS011;30729;49.486;10.792;2023-07-20T04:59:59;9.43;;;3.55;;
44995;SDS011;30729;49.486;10.792;2023-07-20T05:02:24;9.52;;;3.90;;
44995;SDS011;30729;49.486;10.792;2023-07-20T05:04:49;8.70;;;3.67;;
44995;SDS011;30729;49.486;10.792;2023-07-20T05:07:14;10.23;;;4.78;;
44995;SDS011;30729;49.486;10.792;2023-07-20T05:09:39;9.40;;;3.50;;
44995;SDS011;30729;49.486;10.792;2023-07-20T05:12:05;7.80;;;3.55;;
44995;SDS011;30729;49.486;10.792;2023-07-20T05:14:31;11.68;;;3.53;;
44995;SDS011;30729;49.486;10.792;2023-07-20T05:16:56;9.30;;;3.28;;
44995;SDS011;30729;49.486;10.792;2023-07-20T05:19:21;8.70;;;3.35;;
44995;SDS011;30729;49.486;10.792;2023-07-20T05:21:46;9.50;;;3.28;;
44995;SDS011;30729;49.486;10.792;2023-07-20T05:24:12;8.33;;;3.13;;
44995;SDS011;30729;49.486;10.792;2023-07-20T05:26:37;10.10;;;3.50;;
44995;SDS011;30729;49.486;10.792;2023-07-20T05:29:03;8.48;;;3.22;;
44995;SDS011;30729;49.486;10.792;2023-07-20T05:31:28;12.82;;;3.55;;
44995;SDS011;30729;49.486;10.792;2023-07-20T05:33:55;6.55;;;3.35;;
44995;SDS011;30729;49.486;10.792;2023-07-20T05:36:20;6.17;;;3.10;;
44995;SDS011;30729;49.486;10.792;2023-07-20T05:38:45;18.45;;;3.70;;
44995;SDS011;30729;49.486;10.792;2023-07-20T05:41:11;8.90;;;2.97;;
44995;SDS011;30729;49.486;10.792;2023-07-20T05:43:36;7.28;;;3.03;;
44995;SDS011;30729;49.486;10.792;2023-07-20T05:46:01;6.10;;;2.93;;
44995;SDS011;30729;49.486;10.792;2023-07-20T05:48:27;5.95;;;2.58;;
44995;SDS011;30729;49.486;10.792;2023-07-20T05:50:52;4.88;;;2.83;;
44995;SDS011;30729;49.486;10.792;2023-07-20T05:53:17;7.63;;;3.15;;
44995;SDS011;30729;49.486;10.792;2023-07-20T05:55:42;5.88;;;3.10;;
44995;SDS011;30729;49.486;10.792;2023-07-20T05:58:07;8.90;;;3.00;;
44995;SDS011;30729;49.486;10.792;2023-07-20T06:00:32;6.40;;;2.90;;
44995;SDS011;30729;49.486;10.792;2023-07-20T06:02:58;7.28;;;2.50;;
44995;SDS011;30729;49.486;10.792;2023-07-20T06:05:23;9.95;;;2.58;;
44995;SDS011;30729;49.486;10.792;2023-07-20T06:07:48;6.43;;;2.40;;
44995;SDS011;30729;49.486;10.792;2023-07-20T06:10:13;7.50;;;2.47;;
44995;SDS011;30729;49.486;10.792;2023-07-20T06:12:39;8.10;;;2.22;;
44995;SDS011;30729;49.486;10.792;2023-07-20T06:15:05;8.15;;;2.78;;
44995;SDS011;30729;49.486;10.792;2023-07-20T06:17:30;6.25;;;2.28;;
44995;SDS011;30729;49.486;10.792;2023-07-20T06:19:55;3.65;;;2.15;;
44995;SDS011;30729;49.486;10.792;2023-07-20T06:22:21;7.17;;;2.60;;
44995;SDS011;30729;49.486;10.792;2023-07-20T06:24:46;4.93;;;2.45;;
44995;SDS011;30729;49.486;10.792;2023-07-20T06:27:11;4.93;;;2.23;;
44995;SDS011;30729;49.486;10.792;2023-07-20T06:29:37;5.55;;;2.20;;
44995;SDS011;30729;49.486;10.792;2023-07-20T06:32:02;3.97;;;1.95;;
44995;SDS011;30729;49.486;10.792;2023-07-20T06:34:27;7.07;;;2.45;;
44995;SDS011;30729;49.486;10.792;2023-07-20T06:36:52;6.40;;;2.50;;
44995;SDS011;30729;49.486;10.792;2023-07-20T06:39:18;4.50;;;2.15;;
44995;SDS011;30729;49.486;10.792;2023-07-20T06:41:43;6.13;;;2.50;;
44995;SDS011;30729;49.486;10.792;2023-07-20T06:44:08;5.90;;;2.97;;
44995;SDS011;30729;49.486;10.792;2023-07-20T06:46:33;5.90;;;2.50;;
44995;SDS011;30729;49.486;10.792;2023-07-20T06:48:58;6.47;;;2.00;;
44995;SDS011;30729;49.486;10.792;2023-07-20T06:51:24;6.85;;;2.35;;
44995;SDS011;30729;49.486;10.792;2023-07-20T06:53:49;7.63;;;2.23;;
44995;SDS011;30729;49.486;10.792;2023-07-20T06:56:14;7.85;;;2.30;;
44995;SDS011;30729;49.486;10.792;2023-07-20T06:58:39;5.45;;;2.83;;
44995;SDS011;30729;49.486;10.792;2023-07-20T07:01:05;4.93;;;2.10;;
44995;SDS011;30729;49.486;10.792;2023-07-20T07:03:31;4.88;;;2.20;;
44995;SDS011;30729;49.486;10.792;2023-07-20T07:05:56;8.55;;;2.17;;
44995;SDS011;30729;49.486;10.792;2023-07-20T07:08:21;5.88;;;2.30;;
44995;SDS011;30729;49.486;10.792;2023-07-20T07:10:47;5.03;;;2.08;;
44995;SDS011;30729;49.486;10.792;2023-07-20T07:13:12;7.05;;;2.47;;
44995;SDS011;30729;49.486;10.792;2023-07-20T07:15:37;8.13;;;2.42;;
44995;SDS011;30729;49.486;10.792;2023-07-20T07:18:02;6.83;;;2.27;;
44995;SDS011;30729;49.486;10.792;2023-07-20T07:20:28;5.97;;;2.13;;
44995;SDS011;30729;49.486;10.792;2023-07-20T07:22:53;4.07;;;1.90;;
44995;SDS011;30729;49.486;10.792;2023-07-20T07:25:20;7.30;;;2.30;;
44995;SDS011;30729;49.486;10.792;2023-07-20T07:27:45;4.70;;;1.95;;
44995;SDS011;30729;49.486;10.792;2023-07-20T07:30:11;6.15;;;2.38;;
44995;SDS011;30729;49.486;10.792;2023-07-20T07:32:36;6.72;;;2.35;;
44995;SDS011;30729;49.486;10.792;2023-07-20T07:35:01;8.85;;;2.47;;
44995;SDS011;30729;49.486;10.792;2023-07-20T07:37:26;7.45;;;2.38;;
44995;SDS011;30729;49.486;10.792;2023-07-20T07:39:52;5.07;;;2.08;;
44995;SDS011;30729;49.486;10.792;2023-07-20T07:42:17;5.05;;;2.05;;
44995;SDS011;30729;49.486;10.792;2023-07-20T07:44:43;7.65;;;2.30;;
44995;SDS011;30729;49.486;10.792;2023-07-20T07:47:09;4.25;;;1.98;;
44995;SDS011;30729;49.486;10.792;2023-07-20T07:49:34;6.28;;;2.28;;
44995;SDS011;30729;49.486;10.792;2023-07-20T07:52:00;3.77;;;1.80;;
44995;SDS011;30729;49.486;10.792;2023-07-20T07:54:27;6.35;;;1.90;;
44995;SDS011;30729;49.486;10.792;2023-07-20T07:56:52;6.60;;;2.17;;
44995;SDS011;30729;49.486;10.792;2023-07-20T07:59:17;6.50;;;1.90;;
44995;SDS011;30729;49.486;10.792;2023-07-20T08:01:42;4.63;;;2.13;;
44995;SDS011;30729;49.486;10.792;2023-07-20T08:04:08;3.55;;;2.03;;
44995;SDS011;30729;49.486;10.792;2023-07-20T08:06:33;3.55;;;1.73;;
44995;SDS011;30729;49.486;10.792;2023-07-20T08:08:58;7.50;;;2.05;;
44995;SDS011;30729;49.486;10.792;2023-07-20T08:11:23;7.78;;;2.10;;
44995;SDS011;30729;49.486;10.792;2023-07-20T08:13:49;13.52;;;2.30;;
44995;SDS011;30729;49.486;10.792;2023-07-20T08:16:14;4.83;;;2.00;;
44995;SDS011;30729;49.486;10.792;2023-07-20T08:18:39;5.78;;;1.92;;
44995;SDS011;30729;49.486;10.792;2023-07-20T08:21:04;5.60;;;1.80;;
44995;SDS011;30729;49.486;10.792;2023-07-20T08:23:29;5.68;;;1.63;;
44995;SDS011;30729;49.486;10.792;2023-07-20T08:25:54;7.30;;;1.80;;
44995;SDS011;30729;49.486;10.792;2023-07-20T08:28:20;3.58;;;1.55;;
44995;SDS011;30729;49.486;10.792;2023-07-20T08:30:46;6.90;;;1.90;;
44995;SDS011;30729;49.486;10.792;2023-07-20T08:33:15;4.03;;;1.98;;
44995;SDS011;30729;49.486;10.792;2023-07-20T08:35:40;3.35;;;1.40;;
44995;SDS011;30729;49.486;10.792;2023-07-20T08:38:05;2.53;;;1.40;;
44995;SDS011;30729;49.486;10.792;2023-07-20T08:40:31;3.45;;;1.60;;
44995;SDS011;30729;49.486;10.792;2023-07-20T08:42:57;6.13;;;1.95;;
44995;SDS011;30729;49.486;10.792;2023-07-20T08:45:23;3.42;;;1.73;;
44995;SDS011;30729;49.486;10.792;2023-07-20T08:47:50;7.80;;;2.00;;
44995;SDS011;30729;49.486;10.792;2023-07-20T08:50:16;4.07;;;1.60;;
44995;SDS011;30729;49.486;10.792;2023-07-20T08:52:41;4.10;;;1.77;;
44995;SDS011;30729;49.486;10.792;2023-07-20T08:55:06;3.22;;;1.63;;
44995;SDS011;30729;49.486;10.792;2023-07-20T08:57:32;3.72;;;1.60;;
44995;SDS011;30729;49.486;10.792;2023-07-20T08:59:58;3.00;;;1.50;;
44995;SDS011;30729;49.486;10.792;2023-07-20T09:02:24;3.47;;;1.40;;
44995;SDS011;30729;49.486;10.792;2023-07-20T09:04:50;5.55;;;1.80;;
44995;SDS011;30729;49.486;10.792;2023-07-20T09:07:15;5.80;;;1.83;;
44995;SDS011;30729;49.486;10.792;2023-07-20T09:09:40;4.60;;;1.65;;
44995;SDS011;30729;49.486;10.792;2023-07-20T09:12:15;5.72;;;1.55;;
44995;SDS011;30729;49.486;10.792;2023-07-20T09:14:42;3.80;;;1.65;;
44995;SDS011;30729;49.486;10.792;2023-07-20T09:17:07;3.90;;;1.40;;
44995;SDS011;30729;49.486;10.792;2023-07-20T09:19:37;3.92;;;1.20;;
44995;SDS011;30729;49.486;10.792;2023-07-20T09:22:03;4.35;;;1.40;;
44995;SDS011;30729;49.486;10.792;2023-07-20T09:24:30;5.25;;;2.65;;
44995;SDS011;30729;49.486;10.792;2023-07-20T09:26:56;2.33;;;1.10;;
44995;SDS011;30729;49.486;10.792;2023-07-20T09:29:22;4.23;;;1.10;;
44995;SDS011;30729;49.486;10.792;2023-07-20T09:32:02;1.70;;;1.10;;
44995;SDS011;30729;49.486;10.792;2023-07-20T09:34:31;4.00;;;1.30;;
44995;SDS011;30729;49.486;10.792;2023-07-20T09:36:56;1.60;;;1.05;;
44995;SDS011;30729;49.486;10.792;2023-07-20T09:39:22;2.55;;;1.20;;
44995;SDS011;30729;49.486;10.792;2023-07-20T09:41:47;3.30;;;1.20;;
44995;SDS011;30729;49.486;10.792;2023-07-20T09:44:15;2.22;;;1.33;;
44995;SDS011;30729;49.486;10.792;2023-07-20T09:46:41;3.08;;;1.30;;
44995;SDS011;30729;49.486;10.792;2023-07-20T09:49:08;3.63;;;1.30;;
44995;SDS011;30729;49.486;10.792;2023-07-20T09:51:33;1.65;;;1.10;;
44995;SDS011;30729;49.486;10.792;2023-07-20T09:53:58;3.80;;;1.53;;
44995;SDS011;30729;49.486;10.792;2023-07-20T09:56:24;3.03;;;1.20;;
44995;SDS011;30729;49.486;10.792;2023-07-20T09:58:50;4.15;;;2.30;;
44995;SDS011;30729;49.486;10.792;2023-07-20T10:01:16;3.00;;;1.47;;
44995;SDS011;30729;49.486;10.792;2023-07-20T10:03:42;3.20;;;1.30;;
44995;SDS011;30729;49.486;10.792;2023-07-20T10:06:10;2.28;;;1.60;;
44995;SDS011;30729;49.486;10.792;2023-07-20T10:08:38;2.72;;;1.20;;
44995;SDS011;30729;49.486;10.792;2023-07-20T10:11:07;4.43;;;2.85;;
44995;SDS011;30729;49.486;10.792;2023-07-20T10:13:32;2.08;;;1.17;;
44995;SDS011;30729;49.486;10.792;2023-07-20T10:16:02;4.35;;;1.67;;
44995;SDS011;30729;49.486;10.792;2023-07-20T10:18:29;3.22;;;1.33;;
44995;SDS011;30729;49.486;10.792;2023-07-20T10:20:55;1.40;;;1.10;;
44995;SDS011;30729;49.486;10.792;2023-07-20T10:23:21;2.78;;;1.30;;
44995;SDS011;30729;49.486;10.792;2023-07-20T10:25:47;4.15;;;1.50;;
44995;SDS011;30729;49.486;10.792;2023-07-20T10:28:12;2.67;;;1.10;;
44995;SDS011;30729;49.486;10.792;2023-07-20T10:30:38;2.22;;;1.20;;
44995;SDS011;30729;49.486;10.792;2023-07-20T10:33:03;3.35;;;1.30;;
44995;SDS011;30729;49.486;10.792;2023-07-20T10:35:29;3.08;;;1.52;;
44995;SDS011;30729;49.486;10.792;2023-07-20T10:37:56;3.30;;;1.30;;
44995;SDS011;30729;49.486;10.792;2023-07-20T10:42:50;2.15;;;1.30;;
44995;SDS011;30729;49.486;10.792;2023-07-20T10:45:16;11.25;;;10.50;;
44995;SDS011;30729;49.486;10.792;2023-07-20T10:47:45;3.70;;;1.30;;
44995;SDS011;30729;49.486;10.792;2023-07-20T10:50:10;2.83;;;1.13;;
44995;SDS011;30729;49.486;10.792;2023-07-20T10:52:37;5.07;;;1.52;;
44995;SDS011;30729;49.486;10.792;2023-07-20T10:55:25;2.70;;;1.30;;
44995;SDS011;30729;49.486;10.792;2023-07-20T10:58:08;4.30;;;1.27;;
44995;SDS011;30729;49.486;10.792;2023-07-20T11:00:34;2.20;;;1.10;;
44995;SDS011;30729;49.486;10.792;2023-07-20T11:03:00;2.83;;;1.30;;
44995;SDS011;30729;49.486;10.792;2023-07-20T11:05:35;2.50;;;1.40;;
44995;SDS011;30729;49.486;10.792;2023-07-20T11:08:03;2.90;;;2.63;;
44995;SDS011;30729;49.486;10.792;2023-07-20T11:10:28;1.35;;;1.15;;
44995;SDS011;30729;49.486;10.792;2023-07-20T11:21:18;1.85;;;1.27;;
44995;SDS011;30729;49.486;10.792;2023-07-20T11:23:43;1.67;;;1.10;;
44995;SDS011;30729;49.486;10.792;2023-07-20T11:26:10;3.60;;;1.40;;
44995;SDS011;30729;49.486;10.792;2023-07-20T11:28:37;4.57;;;1.50;;
44995;SDS011;30729;49.486;10.792;2023-07-20T11:31:02;3.67;;;1.70;;
44995;SDS011;30729;49.486;10.792;2023-07-20T11:33:27;2.00;;;1.40;;
44995;SDS011;30729;49.486;10.792;2023-07-20T11:35:52;3.17;;;1.70;;
44995;SDS011;30729;49.486;10.792;2023-07-20T11:38:18;2.83;;;1.40;;
44995;SDS011;30729;49.486;10.792;2023-07-20T11:40:46;2.75;;;1.50;;
44995;SDS011;30729;49.486;10.792;2023-07-20T11:43:12;1.92;;;1.40;;
44995;SDS011;30729;49.486;10.792;2023-07-20T11:45:37;1.63;;;1.20;;
44995;SDS011;30729;49.486;10.792;2023-07-20T11:48:03;3.30;;;1.55;;
44995;SDS011;30729;49.486;10.792;2023-07-20T11:50:28;5.03;;;1.30;;
44995;SDS011;30729;49.486;10.792;2023-07-20T11:52:53;2.80;;;1.30;;
44995;SDS011;30729;49.486;10.792;2023-07-20T11:55:19;2.40;;;1.25;;
44995;SDS011;30729;49.486;10.792;2023-07-20T11:58:00;3.15;;;1.40;;
44995;SDS011;30729;49.486;10.792;2023-07-20T12:00:25;1.55;;;1.20;;
44995;SDS011;30729;49.486;10.792;2023-07-20T12:02:50;1.27;;;1.00;;
44995;SDS011;30729;49.486;10.792;2023-07-20T12:05:18;2.85;;;1.50;;
44995;SDS011;30729;49.486;10.792;2023-07-20T12:07:44;3.42;;;2.67;;
44995;SDS011;30729;49.486;10.792;2023-07-20T12:10:11;2.75;;;1.50;;
44995;SDS011;30729;49.486;10.792;2023-07-20T12:12:37;3.00;;;1.30;;
44995;SDS011;30729;49.486;10.792;2023-07-20T12:15:13;2.45;;;1.38;;
44995;SDS011;30729;49.486;10.792;2023-07-20T12:18:00;3.65;;;2.10;;
44995;SDS011;30729;49.486;10.792;2023-07-20T12:20:25;3.35;;;1.30;;
44995;SDS011;30729;49.486;10.792;2023-07-20T12:22:50;4.28;;;1.30;;
44995;SDS011;30729;49.486;10.792;2023-07-20T12:25:16;3.13;;;1.53;;
44995;SDS011;30729;49.486;10.792;2023-07-20T12:27:44;4.68;;;1.45;;
44995;SDS011;30729;49.486;10.792;2023-07-20T12:30:09;3.17;;;1.40;;
44995;SDS011;30729;49.486;10.792;2023-07-20T12:32:34;2.80;;;1.30;;
44995;SDS011;30729;49.486;10.792;2023-07-20T12:34:59;3.90;;;1.47;;
44995;SDS011;30729;49.486;10.792;2023-07-20T12:37:25;2.65;;;1.60;;
44995;SDS011;30729;49.486;10.792;2023-07-20T12:39:51;2.22;;;1.10;;
44995;SDS011;30729;49.486;10.792;2023-07-20T12:42:16;1.77;;;1.27;;
44995;SDS011;30729;49.486;10.792;2023-07-20T12:44:41;2.03;;;1.37;;
44995;SDS011;30729;49.486;10.792;2023-07-20T12:47:06;1.90;;;1.23;;
44995;SDS011;30729;49.486;10.792;2023-07-20T12:49:32;2.97;;;1.52;;
44995;SDS011;30729;49.486;10.792;2023-07-20T12:51:57;2.17;;;1.20;;
44995;SDS011;30729;49.486;10.792;2023-07-20T12:54:22;2.50;;;1.48;;
44995;SDS011;30729;49.486;10.792;2023-07-20T12:56:47;1.57;;;1.17;;
44995;SDS011;30729;49.486;10.792;2023-07-20T12:59:13;1.75;;;1.30;;
44995;SDS011;30729;49.486;10.792;2023-07-20T13:01:38;4.27;;;1.40;;
44995;SDS011;30729;49.486;10.792;2023-07-20T13:04:03;5.37;;;2.23;;
44995;SDS011;30729;49.486;10.792;2023-07-20T13:06:28;1.45;;;1.23;;
44995;SDS011;30729;49.486;10.792;2023-07-20T13:08:53;4.63;;;2.30;;
44995;SDS011;30729;49.486;10.792;2023-07-20T13:11:21;3.10;;;1.67;;
44995;SDS011;30729;49.486;10.792;2023-07-20T13:13:47;6.05;;;1.83;;
44995;SDS011;30729;49.486;10.792;2023-07-20T13:16:12;2.70;;;1.75;;
44995;SDS011;30729;49.486;10.792;2023-07-20T13:18:37;3.25;;;1.73;;
44995;SDS011;30729;49.486;10.792;2023-07-20T13:21:02;3.00;;;1.52;;
44995;SDS011;30729;49.486;10.792;2023-07-20T13:23:27;2.85;;;1.60;;
44995;SDS011;30729;49.486;10.792;2023-07-20T13:25:53;3.03;;;1.60;;
44995;SDS011;30729;49.486;10.792;2023-07-20T13:28:18;2.50;;;1.43;;
44995;SDS011;30729;49.486;10.792;2023-07-20T13:30:43;2.05;;;1.67;;
44995;SDS011;30729;49.486;10.792;2023-07-20T13:33:10;4.63;;;2.33;;
44995;SDS011;30729;49.486;10.792;2023-07-20T13:35:35;2.75;;;1.80;;
44995;SDS011;30729;49.486;10.792;2023-07-20T13:38:00;3.67;;;2.10;;
44995;SDS011;30729;49.486;10.792;2023-07-20T13:40:25;3.27;;;2.00;;
44995;SDS011;30729;49.486;10.792;2023-07-20T13:42:50;3.00;;;1.70;;
44995;SDS011;30729;49.486;10.792;2023-07-20T13:45:15;2.35;;;1.50;;
44995;SDS011;30729;49.486;10.792;2023-07-20T13:47:41;2.55;;;1.60;;
44995;SDS011;30729;49.486;10.792;2023-07-20T13:50:06;3.23;;;1.60;;
44995;SDS011;30729;49.486;10.792;2023-07-20T13:52:31;3.08;;;1.70;;
44995;SDS011;30729;49.486;10.792;2023-07-20T13:54:56;2.20;;;1.30;;
44995;SDS011;30729;49.486;10.792;2023-07-20T13:57:22;2.97;;;1.27;;
44995;SDS011;30729;49.486;10.792;2023-07-20T13:59:47;2.47;;;1.30;;
44995;SDS011;30729;49.486;10.792;2023-07-20T14:02:13;1.92;;;1.13;;
44995;SDS011;30729;49.486;10.792;2023-07-20T14:04:39;1.73;;;1.10;;
44995;SDS011;30729;49.486;10.792;2023-07-20T14:07:04;2.60;;;1.40;;
44995;SDS011;30729;49.486;10.792;2023-07-20T14:09:30;2.30;;;1.30;;
44995;SDS011;30729;49.486;10.792;2023-07-20T14:11:55;2.90;;;1.67;;
44995;SDS011;30729;49.486;10.792;2023-07-20T14:14:20;2.67;;;1.63;;
44995;SDS011;30729;49.486;10.792;2023-07-20T14:16:45;4.15;;;1.23;;
44995;SDS011;30729;49.486;10.792;2023-07-20T14:19:10;2.63;;;1.23;;
44995;SDS011;30729;49.486;10.792;2023-07-20T14:21:35;2.93;;;1.20;;
44995;SDS011;30729;49.486;10.792;2023-07-20T14:24:01;2.35;;;1.10;;
44995;SDS011;30729;49.486;10.792;2023-07-20T14:26:27;5.55;;;1.60;;
44995;SDS011;30729;49.486;10.792;2023-07-20T14:28:52;2.42;;;1.45;;
44995;SDS011;30729;49.486;10.792;2023-07-20T14:31:17;2.00;;;1.10;;
44995;SDS011;30729;49.486;10.792;2023-07-20T14:33:43;3.05;;;1.73;;
44995;SDS011;30729;49.486;10.792;2023-07-20T14:36:08;2.53;;;1.30;;
44995;SDS011;30729;49.486;10.792;2023-07-20T14:38:34;2.97;;;1.70;;
44995;SDS011;30729;49.486;10.792;2023-07-20T14:40:59;1.25;;;1.15;;
44995;SDS011;30729;49.486;10.792;2023-07-20T14:43:25;1.80;;;1.20;;
44995;SDS011;30729;49.486;10.792;2023-07-20T14:45:50;2.38;;;1.00;;
44995;SDS011;30729;49.486;10.792;2023-07-20T14:48:15;2.70;;;1.40;;
44995;SDS011;30729;49.486;10.792;2023-07-20T14:50:40;2.90;;;1.20;;